Heat Index [SAI AWOS/ASOS Display]_________FAA Disclaimer: "Not for use in aviation at this time______________" Untitled Document
Potsdam Municipal/ Damon Field (PTD)
000
04:33
17/11/18
00
N/A
N/A
30.01
N/A
474
22(F), -6(C)
20(F), -7(C)
22 F
92%
CLR
10
N/A
N/A
N/A
04:33 Zulu Wind Calm, Altimeter 30.01
METAR KPTD 180433Z AUTO 00000KT 10SM CLR M06/M07 A3001 A02
METAR:
FAA Disclaimer--Advisory Use ONLY, not for flight info-- 1/17/2017: Current fuel prices are $4.34 per gallon for 100LL, and $3.55 per gallon for Jet A. AWOS phone 315-265-6106 updated 09/18/2014
INFO:
Wind Direction:
Wind Speed:
Wind Gust:
Wind Variable:
Altimeter:
Dens Alt:
Elev:
Temp:
Dwpt:
Wind Chill
Rel Humidity:
Ceiling:
Visibility:
Prsnt Wea:
PCPN:
Remarks:
How to read the WebPage